< < Back
Terminal Aerodrome Forecast


Current Version              Previous Versions:   1  2  3  4  5  6  7  8  9  

Terminal Aerodrome Forecast

725
FTUS44 KOHX 212300
TAFBNA
TAF
KBNA 212340Z 2200/2224 07005KT P6SM SCT050 SCT100
     FM220100 VRB02KT P6SM SCT250
     FM221200 18006KT P6SM SCT040 SCT250=



Latest METAR

779
SAUS70 KWBC 220700 RRJ
MTRBNA
METAR KBNA 220653Z 00000KT 10SM FEW048 SCT150 23/22 A3007 RMK AO2 SLP175
T02330217


USA.gov is the U.S. government's official web portal to all federal, state and local government web resources and services.